sensor_id;sensor_type;location;lat;lon;timestamp;P1;durP1;ratioP1;P2;durP2;ratioP2
75218;SDS011;63801;49.414;19.474;2023-12-20T00:01:22;5.70;;;2.42;;
75218;SDS011;63801;49.414;19.474;2023-12-20T00:03:23;6.93;;;2.20;;
75218;SDS011;63801;49.414;19.474;2023-12-20T00:05:24;5.80;;;2.30;;
75218;SDS011;63801;49.414;19.474;2023-12-20T00:07:24;5.78;;;2.45;;
75218;SDS011;63801;49.414;19.474;2023-12-20T00:09:24;5.82;;;2.75;;
75218;SDS011;63801;49.414;19.474;2023-12-20T00:11:24;6.05;;;2.17;;
75218;SDS011;63801;49.414;19.474;2023-12-20T00:13:25;3.88;;;2.35;;
75218;SDS011;63801;49.414;19.474;2023-12-20T00:15:25;5.35;;;2.17;;
75218;SDS011;63801;49.414;19.474;2023-12-20T00:17:25;3.75;;;2.20;;
75218;SDS011;63801;49.414;19.474;2023-12-20T00:19:26;4.55;;;2.38;;
75218;SDS011;63801;49.414;19.474;2023-12-20T00:21:26;5.40;;;2.42;;
75218;SDS011;63801;49.414;19.474;2023-12-20T00:23:26;6.38;;;2.50;;
75218;SDS011;63801;49.414;19.474;2023-12-20T00:25:27;3.75;;;2.03;;
75218;SDS011;63801;49.414;19.474;2023-12-20T00:27:27;4.40;;;2.28;;
75218;SDS011;63801;49.414;19.474;2023-12-20T00:29:27;5.25;;;2.50;;
75218;SDS011;63801;49.414;19.474;2023-12-20T00:31:28;4.97;;;2.40;;
75218;SDS011;63801;49.414;19.474;2023-12-20T00:33:28;5.32;;;2.78;;
75218;SDS011;63801;49.414;19.474;2023-12-20T00:35:28;5.47;;;2.50;;
75218;SDS011;63801;49.414;19.474;2023-12-20T00:37:28;7.55;;;3.30;;
75218;SDS011;63801;49.414;19.474;2023-12-20T00:39:29;6.82;;;2.92;;
75218;SDS011;63801;49.414;19.474;2023-12-20T00:41:29;5.53;;;2.80;;
75218;SDS011;63801;49.414;19.474;2023-12-20T00:43:29;5.95;;;3.05;;
75218;SDS011;63801;49.414;19.474;2023-12-20T00:45:30;6.25;;;2.83;;
75218;SDS011;63801;49.414;19.474;2023-12-20T00:47:30;6.80;;;2.92;;
75218;SDS011;63801;49.414;19.474;2023-12-20T00:49:31;6.95;;;3.20;;
75218;SDS011;63801;49.414;19.474;2023-12-20T00:51:31;7.05;;;3.22;;
75218;SDS011;63801;49.414;19.474;2023-12-20T00:53:31;7.43;;;3.00;;
75218;SDS011;63801;49.414;19.474;2023-12-20T00:55:32;5.25;;;2.85;;
75218;SDS011;63801;49.414;19.474;2023-12-20T00:57:32;6.13;;;2.83;;
75218;SDS011;63801;49.414;19.474;2023-12-20T00:59:32;7.78;;;3.30;;
75218;SDS011;63801;49.414;19.474;2023-12-20T01:01:33;6.90;;;3.50;;
75218;SDS011;63801;49.414;19.474;2023-12-20T01:03:33;6.63;;;3.40;;
75218;SDS011;63801;49.414;19.474;2023-12-20T01:05:33;6.32;;;3.05;;
75218;SDS011;63801;49.414;19.474;2023-12-20T01:07:34;7.63;;;3.63;;
75218;SDS011;63801;49.414;19.474;2023-12-20T01:09:34;9.25;;;3.03;;
75218;SDS011;63801;49.414;19.474;2023-12-20T01:11:34;6.35;;;2.95;;
75218;SDS011;63801;49.414;19.474;2023-12-20T01:13:35;5.95;;;3.00;;
75218;SDS011;63801;49.414;19.474;2023-12-20T01:15:35;6.30;;;3.15;;
75218;SDS011;63801;49.414;19.474;2023-12-20T01:17:35;6.18;;;3.03;;
75218;SDS011;63801;49.414;19.474;2023-12-20T01:19:36;5.70;;;2.75;;
75218;SDS011;63801;49.414;19.474;2023-12-20T01:21:36;7.95;;;3.65;;
75218;SDS011;63801;49.414;19.474;2023-12-20T01:23:36;6.78;;;3.17;;
75218;SDS011;63801;49.414;19.474;2023-12-20T01:25:37;7.53;;;3.08;;
75218;SDS011;63801;49.414;19.474;2023-12-20T01:27:37;6.93;;;3.45;;
75218;SDS011;63801;49.414;19.474;2023-12-20T01:29:37;6.72;;;3.42;;
75218;SDS011;63801;49.414;19.474;2023-12-20T01:31:38;9.80;;;3.95;;
75218;SDS011;63801;49.414;19.474;2023-12-20T01:33:38;8.52;;;3.85;;
75218;SDS011;63801;49.414;19.474;2023-12-20T01:35:39;6.88;;;3.58;;
75218;SDS011;63801;49.414;19.474;2023-12-20T01:37:39;7.63;;;3.65;;
75218;SDS011;63801;49.414;19.474;2023-12-20T01:39:39;8.93;;;3.45;;
75218;SDS011;63801;49.414;19.474;2023-12-20T01:41:40;7.63;;;3.25;;
75218;SDS011;63801;49.414;19.474;2023-12-20T01:43:40;6.88;;;2.90;;
75218;SDS011;63801;49.414;19.474;2023-12-20T01:45:40;5.95;;;3.15;;
75218;SDS011;63801;49.414;19.474;2023-12-20T01:47:41;6.90;;;2.85;;
75218;SDS011;63801;49.414;19.474;2023-12-20T01:49:41;5.57;;;2.58;;
75218;SDS011;63801;49.414;19.474;2023-12-20T01:51:42;6.85;;;3.17;;
75218;SDS011;63801;49.414;19.474;2023-12-20T01:53:43;5.93;;;2.88;;
75218;SDS011;63801;49.414;19.474;2023-12-20T01:55:44;6.35;;;2.97;;
75218;SDS011;63801;49.414;19.474;2023-12-20T01:57:45;7.18;;;2.72;;
75218;SDS011;63801;49.414;19.474;2023-12-20T01:59:47;8.32;;;3.03;;
75218;SDS011;63801;49.414;19.474;2023-12-20T02:01:47;6.68;;;2.60;;
75218;SDS011;63801;49.414;19.474;2023-12-20T02:03:47;6.05;;;3.05;;
75218;SDS011;63801;49.414;19.474;2023-12-20T02:05:48;6.93;;;3.40;;
75218;SDS011;63801;49.414;19.474;2023-12-20T02:07:49;6.78;;;2.92;;
75218;SDS011;63801;49.414;19.474;2023-12-20T02:09:49;6.10;;;3.13;;
75218;SDS011;63801;49.414;19.474;2023-12-20T02:11:50;6.60;;;3.28;;
75218;SDS011;63801;49.414;19.474;2023-12-20T02:13:50;9.25;;;3.88;;
75218;SDS011;63801;49.414;19.474;2023-12-20T02:15:51;6.00;;;3.30;;
75218;SDS011;63801;49.414;19.474;2023-12-20T02:17:51;8.32;;;3.50;;
75218;SDS011;63801;49.414;19.474;2023-12-20T02:19:52;7.22;;;3.20;;
75218;SDS011;63801;49.414;19.474;2023-12-20T02:22:04;7.57;;;3.55;;
75218;SDS011;63801;49.414;19.474;2023-12-20T02:24:06;7.70;;;3.25;;
75218;SDS011;63801;49.414;19.474;2023-12-20T02:26:06;10.52;;;3.53;;
75218;SDS011;63801;49.414;19.474;2023-12-20T02:28:07;7.20;;;3.60;;
75218;SDS011;63801;49.414;19.474;2023-12-20T02:30:08;6.90;;;3.42;;
75218;SDS011;63801;49.414;19.474;2023-12-20T02:32:08;6.55;;;3.38;;
75218;SDS011;63801;49.414;19.474;2023-12-20T02:34:09;7.85;;;3.40;;
75218;SDS011;63801;49.414;19.474;2023-12-20T02:36:09;6.65;;;3.00;;
75218;SDS011;63801;49.414;19.474;2023-12-20T02:38:09;7.50;;;3.63;;
75218;SDS011;63801;49.414;19.474;2023-12-20T02:40:09;5.93;;;3.20;;
75218;SDS011;63801;49.414;19.474;2023-12-20T02:42:10;8.80;;;3.78;;
75218;SDS011;63801;49.414;19.474;2023-12-20T02:44:11;6.78;;;3.25;;
75218;SDS011;63801;49.414;19.474;2023-12-20T02:46:13;7.03;;;2.83;;
75218;SDS011;63801;49.414;19.474;2023-12-20T02:50:15;6.10;;;2.75;;
75218;SDS011;63801;49.414;19.474;2023-12-20T02:52:15;7.05;;;3.13;;
75218;SDS011;63801;49.414;19.474;2023-12-20T02:54:15;6.68;;;3.20;;
75218;SDS011;63801;49.414;19.474;2023-12-20T02:56:16;6.95;;;3.13;;
75218;SDS011;63801;49.414;19.474;2023-12-20T02:58:16;6.55;;;3.20;;
75218;SDS011;63801;49.414;19.474;2023-12-20T03:00:17;8.88;;;2.92;;
75218;SDS011;63801;49.414;19.474;2023-12-20T03:02:18;5.75;;;3.10;;
75218;SDS011;63801;49.414;19.474;2023-12-20T03:04:18;5.68;;;2.42;;
75218;SDS011;63801;49.414;19.474;2023-12-20T03:06:18;7.68;;;3.20;;
75218;SDS011;63801;49.414;19.474;2023-12-20T03:08:19;6.93;;;3.08;;
75218;SDS011;63801;49.414;19.474;2023-12-20T03:10:19;5.53;;;3.03;;
75218;SDS011;63801;49.414;19.474;2023-12-20T03:12:20;7.03;;;3.10;;
75218;SDS011;63801;49.414;19.474;2023-12-20T03:14:20;9.02;;;3.08;;
75218;SDS011;63801;49.414;19.474;2023-12-20T03:16:20;5.20;;;3.00;;
75218;SDS011;63801;49.414;19.474;2023-12-20T03:18:21;7.13;;;3.15;;
75218;SDS011;63801;49.414;19.474;2023-12-20T03:20:21;6.25;;;2.83;;
75218;SDS011;63801;49.414;19.474;2023-12-20T03:22:21;5.53;;;2.90;;
75218;SDS011;63801;49.414;19.474;2023-12-20T03:24:22;8.43;;;4.00;;
75218;SDS011;63801;49.414;19.474;2023-12-20T03:26:22;6.75;;;3.22;;
75218;SDS011;63801;49.414;19.474;2023-12-20T03:28:23;9.98;;;4.72;;
75218;SDS011;63801;49.414;19.474;2023-12-20T03:30:23;6.13;;;2.80;;
75218;SDS011;63801;49.414;19.474;2023-12-20T03:32:23;5.72;;;2.50;;
75218;SDS011;63801;49.414;19.474;2023-12-20T03:34:23;5.20;;;2.70;;
75218;SDS011;63801;49.414;19.474;2023-12-20T03:36:24;4.50;;;2.15;;
75218;SDS011;63801;49.414;19.474;2023-12-20T03:38:24;4.40;;;2.13;;
75218;SDS011;63801;49.414;19.474;2023-12-20T03:40:24;5.10;;;2.40;;
75218;SDS011;63801;49.414;19.474;2023-12-20T03:42:25;4.82;;;2.70;;
75218;SDS011;63801;49.414;19.474;2023-12-20T03:44:25;6.32;;;2.45;;
75218;SDS011;63801;49.414;19.474;2023-12-20T03:46:25;6.03;;;2.95;;
75218;SDS011;63801;49.414;19.474;2023-12-20T03:48:26;5.13;;;2.67;;
75218;SDS011;63801;49.414;19.474;2023-12-20T03:50:26;5.22;;;2.45;;
75218;SDS011;63801;49.414;19.474;2023-12-20T03:52:27;7.00;;;3.25;;
75218;SDS011;63801;49.414;19.474;2023-12-20T03:54:27;7.35;;;3.63;;
75218;SDS011;63801;49.414;19.474;2023-12-20T03:56:27;6.85;;;3.33;;
75218;SDS011;63801;49.414;19.474;2023-12-20T03:58:27;7.72;;;3.15;;
75218;SDS011;63801;49.414;19.474;2023-12-20T04:00:28;7.25;;;3.42;;
75218;SDS011;63801;49.414;19.474;2023-12-20T04:02:28;9.82;;;3.58;;
75218;SDS011;63801;49.414;19.474;2023-12-20T04:04:29;7.03;;;3.13;;
75218;SDS011;63801;49.414;19.474;2023-12-20T04:06:29;7.03;;;3.15;;
75218;SDS011;63801;49.414;19.474;2023-12-20T04:08:29;6.22;;;3.05;;
75218;SDS011;63801;49.414;19.474;2023-12-20T04:10:29;9.90;;;4.00;;
75218;SDS011;63801;49.414;19.474;2023-12-20T04:12:30;9.30;;;4.13;;
75218;SDS011;63801;49.414;19.474;2023-12-20T04:14:31;7.13;;;3.40;;
75218;SDS011;63801;49.414;19.474;2023-12-20T04:16:31;8.73;;;3.72;;
75218;SDS011;63801;49.414;19.474;2023-12-20T04:18:31;7.50;;;3.75;;
75218;SDS011;63801;49.414;19.474;2023-12-20T04:20:32;8.15;;;3.50;;
75218;SDS011;63801;49.414;19.474;2023-12-20T04:22:32;6.35;;;2.95;;
75218;SDS011;63801;49.414;19.474;2023-12-20T04:24:32;6.13;;;3.15;;
75218;SDS011;63801;49.414;19.474;2023-12-20T04:26:32;6.55;;;3.10;;
75218;SDS011;63801;49.414;19.474;2023-12-20T04:28:33;7.10;;;3.25;;
75218;SDS011;63801;49.414;19.474;2023-12-20T04:30:33;6.80;;;3.17;;
75218;SDS011;63801;49.414;19.474;2023-12-20T04:32:33;5.65;;;2.90;;
75218;SDS011;63801;49.414;19.474;2023-12-20T04:34:34;7.40;;;2.97;;
75218;SDS011;63801;49.414;19.474;2023-12-20T04:36:34;7.80;;;3.05;;
75218;SDS011;63801;49.414;19.474;2023-12-20T04:38:34;4.95;;;2.67;;
75218;SDS011;63801;49.414;19.474;2023-12-20T04:40:35;5.30;;;2.95;;
75218;SDS011;63801;49.414;19.474;2023-12-20T04:42:35;5.78;;;2.85;;
75218;SDS011;63801;49.414;19.474;2023-12-20T04:44:35;8.77;;;2.90;;
75218;SDS011;63801;49.414;19.474;2023-12-20T04:46:36;5.70;;;2.38;;
75218;SDS011;63801;49.414;19.474;2023-12-20T04:48:36;5.97;;;2.90;;
75218;SDS011;63801;49.414;19.474;2023-12-20T04:50:36;7.13;;;3.40;;
75218;SDS011;63801;49.414;19.474;2023-12-20T04:52:37;8.07;;;3.22;;
75218;SDS011;63801;49.414;19.474;2023-12-20T04:54:37;5.93;;;2.20;;
75218;SDS011;63801;49.414;19.474;2023-12-20T04:56:37;4.03;;;2.17;;
75218;SDS011;63801;49.414;19.474;2023-12-20T04:58:38;5.93;;;2.58;;
75218;SDS011;63801;49.414;19.474;2023-12-20T05:00:38;10.30;;;4.15;;
75218;SDS011;63801;49.414;19.474;2023-12-20T05:02:38;11.98;;;4.57;;
75218;SDS011;63801;49.414;19.474;2023-12-20T05:04:39;22.70;;;9.20;;
75218;SDS011;63801;49.414;19.474;2023-12-20T05:06:39;28.38;;;10.35;;
75218;SDS011;63801;49.414;19.474;2023-12-20T05:08:39;12.48;;;5.53;;
75218;SDS011;63801;49.414;19.474;2023-12-20T05:10:40;9.25;;;4.50;;
75218;SDS011;63801;49.414;19.474;2023-12-20T05:12:41;10.27;;;4.55;;
75218;SDS011;63801;49.414;19.474;2023-12-20T05:14:41;12.43;;;4.63;;
75218;SDS011;63801;49.414;19.474;2023-12-20T05:16:41;9.70;;;3.40;;
75218;SDS011;63801;49.414;19.474;2023-12-20T05:18:42;13.75;;;4.82;;
75218;SDS011;63801;49.414;19.474;2023-12-20T05:20:42;8.32;;;3.28;;
75218;SDS011;63801;49.414;19.474;2023-12-20T05:22:42;6.82;;;2.97;;
75218;SDS011;63801;49.414;19.474;2023-12-20T05:24:43;6.72;;;2.60;;
75218;SDS011;63801;49.414;19.474;2023-12-20T05:26:43;6.60;;;2.92;;
75218;SDS011;63801;49.414;19.474;2023-12-20T05:28:43;8.82;;;3.20;;
75218;SDS011;63801;49.414;19.474;2023-12-20T05:30:44;10.80;;;2.78;;
75218;SDS011;63801;49.414;19.474;2023-12-20T05:32:44;8.00;;;2.90;;
75218;SDS011;63801;49.414;19.474;2023-12-20T05:34:44;5.65;;;2.67;;
75218;SDS011;63801;49.414;19.474;2023-12-20T05:36:45;6.28;;;2.63;;
75218;SDS011;63801;49.414;19.474;2023-12-20T05:38:45;6.28;;;2.60;;
75218;SDS011;63801;49.414;19.474;2023-12-20T05:40:45;8.90;;;3.40;;
75218;SDS011;63801;49.414;19.474;2023-12-20T05:42:46;12.13;;;4.10;;
75218;SDS011;63801;49.414;19.474;2023-12-20T05:44:46;7.63;;;3.03;;
75218;SDS011;63801;49.414;19.474;2023-12-20T05:46:46;10.82;;;4.43;;
75218;SDS011;63801;49.414;19.474;2023-12-20T05:48:47;13.23;;;5.22;;
75218;SDS011;63801;49.414;19.474;2023-12-20T05:50:47;9.73;;;3.80;;
75218;SDS011;63801;49.414;19.474;2023-12-20T05:52:47;10.35;;;4.28;;
75218;SDS011;63801;49.414;19.474;2023-12-20T05:54:47;13.38;;;4.95;;
75218;SDS011;63801;49.414;19.474;2023-12-20T05:56:48;10.35;;;4.43;;
75218;SDS011;63801;49.414;19.474;2023-12-20T05:58:48;9.00;;;3.20;;
75218;SDS011;63801;49.414;19.474;2023-12-20T06:00:49;8.25;;;3.20;;
75218;SDS011;63801;49.414;19.474;2023-12-20T06:02:49;6.22;;;3.05;;
75218;SDS011;63801;49.414;19.474;2023-12-20T06:04:50;6.65;;;2.88;;
75218;SDS011;63801;49.414;19.474;2023-12-20T06:06:50;6.07;;;2.78;;
75218;SDS011;63801;49.414;19.474;2023-12-20T06:08:50;5.30;;;2.85;;
75218;SDS011;63801;49.414;19.474;2023-12-20T06:10:51;7.32;;;3.33;;
75218;SDS011;63801;49.414;19.474;2023-12-20T06:12:51;19.38;;;5.03;;
75218;SDS011;63801;49.414;19.474;2023-12-20T06:14:51;11.07;;;3.92;;
75218;SDS011;63801;49.414;19.474;2023-12-20T06:16:52;15.23;;;5.20;;
75218;SDS011;63801;49.414;19.474;2023-12-20T06:18:52;8.38;;;2.90;;
75218;SDS011;63801;49.414;19.474;2023-12-20T06:20:52;6.63;;;3.33;;
75218;SDS011;63801;49.414;19.474;2023-12-20T06:22:53;8.88;;;3.63;;
75218;SDS011;63801;49.414;19.474;2023-12-20T06:24:53;6.38;;;3.33;;
75218;SDS011;63801;49.414;19.474;2023-12-20T06:26:54;6.03;;;2.92;;
75218;SDS011;63801;49.414;19.474;2023-12-20T06:28:55;6.72;;;3.33;;
75218;SDS011;63801;49.414;19.474;2023-12-20T06:30:56;7.00;;;3.55;;
75218;SDS011;63801;49.414;19.474;2023-12-20T06:32:57;8.63;;;4.00;;
75218;SDS011;63801;49.414;19.474;2023-12-20T06:34:57;9.32;;;3.90;;
75218;SDS011;63801;49.414;19.474;2023-12-20T06:36:58;7.75;;;3.60;;
75218;SDS011;63801;49.414;19.474;2023-12-20T06:38:58;8.63;;;3.92;;
75218;SDS011;63801;49.414;19.474;2023-12-20T06:40:58;8.25;;;4.05;;
75218;SDS011;63801;49.414;19.474;2023-12-20T06:42:59;7.07;;;3.78;;
75218;SDS011;63801;49.414;19.474;2023-12-20T06:44:59;8.40;;;3.40;;
75218;SDS011;63801;49.414;19.474;2023-12-20T06:47:00;7.95;;;4.00;;
75218;SDS011;63801;49.414;19.474;2023-12-20T06:49:01;8.10;;;3.40;;
75218;SDS011;63801;49.414;19.474;2023-12-20T06:51:01;7.22;;;3.40;;
75218;SDS011;63801;49.414;19.474;2023-12-20T06:53:02;7.65;;;3.85;;
75218;SDS011;63801;49.414;19.474;2023-12-20T06:55:07;6.57;;;3.40;;
75218;SDS011;63801;49.414;19.474;2023-12-20T06:57:07;7.20;;;3.55;;
75218;SDS011;63801;49.414;19.474;2023-12-20T06:59:07;8.57;;;3.28;;
75218;SDS011;63801;49.414;19.474;2023-12-20T07:01:14;8.65;;;3.72;;
75218;SDS011;63801;49.414;19.474;2023-12-20T07:03:15;8.63;;;3.72;;
75218;SDS011;63801;49.414;19.474;2023-12-20T07:05:16;6.60;;;3.30;;
75218;SDS011;63801;49.414;19.474;2023-12-20T07:07:19;7.00;;;3.30;;
75218;SDS011;63801;49.414;19.474;2023-12-20T07:09:20;7.95;;;3.80;;
75218;SDS011;63801;49.414;19.474;2023-12-20T07:11:20;7.35;;;3.47;;
75218;SDS011;63801;49.414;19.474;2023-12-20T07:13:20;8.77;;;4.00;;
75218;SDS011;63801;49.414;19.474;2023-12-20T07:15:22;9.77;;;4.55;;
75218;SDS011;63801;49.414;19.474;2023-12-20T07:17:22;7.68;;;3.65;;
75218;SDS011;63801;49.414;19.474;2023-12-20T07:19:23;8.88;;;4.32;;
75218;SDS011;63801;49.414;19.474;2023-12-20T07:21:23;10.32;;;4.28;;
75218;SDS011;63801;49.414;19.474;2023-12-20T07:23:23;9.02;;;4.72;;
75218;SDS011;63801;49.414;19.474;2023-12-20T07:25:25;8.17;;;4.60;;
75218;SDS011;63801;49.414;19.474;2023-12-20T07:27:26;8.88;;;4.72;;
75218;SDS011;63801;49.414;19.474;2023-12-20T07:29:26;10.63;;;4.78;;
75218;SDS011;63801;49.414;19.474;2023-12-20T07:31:27;9.38;;;4.90;;
75218;SDS011;63801;49.414;19.474;2023-12-20T07:33:27;10.60;;;5.80;;
75218;SDS011;63801;49.414;19.474;2023-12-20T07:35:27;10.65;;;5.43;;
75218;SDS011;63801;49.414;19.474;2023-12-20T07:37:28;11.02;;;4.97;;
75218;SDS011;63801;49.414;19.474;2023-12-20T07:39:28;9.55;;;5.00;;
75218;SDS011;63801;49.414;19.474;2023-12-20T07:41:28;11.60;;;5.63;;
75218;SDS011;63801;49.414;19.474;2023-12-20T07:43:29;8.48;;;5.05;;
75218;SDS011;63801;49.414;19.474;2023-12-20T07:45:29;9.65;;;5.20;;
75218;SDS011;63801;49.414;19.474;2023-12-20T07:47:29;10.43;;;5.80;;
75218;SDS011;63801;49.414;19.474;2023-12-20T07:49:30;11.45;;;5.85;;
75218;SDS011;63801;49.414;19.474;2023-12-20T07:51:30;11.90;;;6.30;;
75218;SDS011;63801;49.414;19.474;2023-12-20T07:53:31;11.25;;;6.10;;
75218;SDS011;63801;49.414;19.474;2023-12-20T07:55:31;11.40;;;5.43;;
75218;SDS011;63801;49.414;19.474;2023-12-20T07:57:31;10.73;;;5.70;;
75218;SDS011;63801;49.414;19.474;2023-12-20T07:59:32;9.68;;;4.70;;
75218;SDS011;63801;49.414;19.474;2023-12-20T08:01:32;9.77;;;5.20;;
75218;SDS011;63801;49.414;19.474;2023-12-20T08:03:32;10.82;;;5.70;;
75218;SDS011;63801;49.414;19.474;2023-12-20T08:05:32;10.70;;;4.25;;
75218;SDS011;63801;49.414;19.474;2023-12-20T08:07:33;8.82;;;4.38;;
75218;SDS011;63801;49.414;19.474;2023-12-20T08:09:33;9.52;;;4.70;;
75218;SDS011;63801;49.414;19.474;2023-12-20T08:11:36;12.05;;;5.20;;
75218;SDS011;63801;49.414;19.474;2023-12-20T08:13:36;11.60;;;4.50;;
75218;SDS011;63801;49.414;19.474;2023-12-20T08:15:37;14.10;;;5.22;;
75218;SDS011;63801;49.414;19.474;2023-12-20T08:17:37;13.20;;;5.45;;
75218;SDS011;63801;49.414;19.474;2023-12-20T08:19:37;9.68;;;4.78;;
75218;SDS011;63801;49.414;19.474;2023-12-20T08:21:38;17.77;;;6.18;;
75218;SDS011;63801;49.414;19.474;2023-12-20T08:23:38;8.52;;;4.63;;
75218;SDS011;63801;49.414;19.474;2023-12-20T08:25:39;11.98;;;5.05;;
75218;SDS011;63801;49.414;19.474;2023-12-20T08:27:39;10.07;;;5.05;;
75218;SDS011;63801;49.414;19.474;2023-12-20T08:29:41;10.57;;;5.18;;
75218;SDS011;63801;49.414;19.474;2023-12-20T08:31:44;8.32;;;4.50;;
75218;SDS011;63801;49.414;19.474;2023-12-20T08:33:44;8.07;;;4.10;;
75218;SDS011;63801;49.414;19.474;2023-12-20T08:35:45;7.78;;;4.20;;
75218;SDS011;63801;49.414;19.474;2023-12-20T08:37:46;7.78;;;4.00;;
75218;SDS011;63801;49.414;19.474;2023-12-20T08:39:46;9.57;;;4.32;;
75218;SDS011;63801;49.414;19.474;2023-12-20T08:41:47;8.52;;;4.68;;
75218;SDS011;63801;49.414;19.474;2023-12-20T08:43:47;9.52;;;4.40;;
75218;SDS011;63801;49.414;19.474;2023-12-20T08:45:47;9.55;;;5.00;;
75218;SDS011;63801;49.414;19.474;2023-12-20T08:47:47;10.13;;;4.82;;
75218;SDS011;63801;49.414;19.474;2023-12-20T08:49:48;8.95;;;4.65;;
75218;SDS011;63801;49.414;19.474;2023-12-20T08:51:48;10.40;;;5.00;;
75218;SDS011;63801;49.414;19.474;2023-12-20T08:53:48;8.73;;;4.63;;
75218;SDS011;63801;49.414;19.474;2023-12-20T08:55:49;9.38;;;4.80;;
75218;SDS011;63801;49.414;19.474;2023-12-20T08:57:49;8.05;;;4.50;;
75218;SDS011;63801;49.414;19.474;2023-12-20T08:59:50;10.68;;;5.50;;
75218;SDS011;63801;49.414;19.474;2023-12-20T09:01:51;10.68;;;4.53;;
75218;SDS011;63801;49.414;19.474;2023-12-20T09:03:54;10.15;;;5.10;;
75218;SDS011;63801;49.414;19.474;2023-12-20T09:05:54;9.35;;;4.82;;
75218;SDS011;63801;49.414;19.474;2023-12-20T09:07:55;8.68;;;4.38;;
75218;SDS011;63801;49.414;19.474;2023-12-20T09:09:55;10.48;;;5.25;;
75218;SDS011;63801;49.414;19.474;2023-12-20T09:11:56;11.68;;;5.25;;
75218;SDS011;63801;49.414;19.474;2023-12-20T09:13:56;8.18;;;4.50;;
75218;SDS011;63801;49.414;19.474;2023-12-20T09:15:57;8.30;;;3.92;;
75218;SDS011;63801;49.414;19.474;2023-12-20T09:17:57;8.90;;;4.68;;
75218;SDS011;63801;49.414;19.474;2023-12-20T09:19:58;9.30;;;4.85;;
75218;SDS011;63801;49.414;19.474;2023-12-20T09:22:00;9.75;;;4.40;;
75218;SDS011;63801;49.414;19.474;2023-12-20T09:24:01;8.80;;;4.60;;
75218;SDS011;63801;49.414;19.474;2023-12-20T09:26:03;8.82;;;4.63;;
75218;SDS011;63801;49.414;19.474;2023-12-20T09:28:04;9.65;;;5.28;;
75218;SDS011;63801;49.414;19.474;2023-12-20T09:30:04;10.40;;;4.75;;
75218;SDS011;63801;49.414;19.474;2023-12-20T09:32:05;10.13;;;4.57;;
75218;SDS011;63801;49.414;19.474;2023-12-20T09:34:05;12.75;;;5.40;;
75218;SDS011;63801;49.414;19.474;2023-12-20T09:36:06;10.13;;;4.70;;
75218;SDS011;63801;49.414;19.474;2023-12-20T09:38:06;9.32;;;4.78;;
75218;SDS011;63801;49.414;19.474;2023-12-20T09:40:07;10.73;;;5.22;;
75218;SDS011;63801;49.414;19.474;2023-12-20T09:42:11;8.32;;;4.18;;
75218;SDS011;63801;49.414;19.474;2023-12-20T09:44:14;10.85;;;4.57;;
75218;SDS011;63801;49.414;19.474;2023-12-20T09:46:17;9.55;;;4.93;;
75218;SDS011;63801;49.414;19.474;2023-12-20T09:48:24;10.07;;;4.95;;
75218;SDS011;63801;49.414;19.474;2023-12-20T09:50:26;10.05;;;5.22;;
75218;SDS011;63801;49.414;19.474;2023-12-20T09:52:27;10.77;;;5.50;;
75218;SDS011;63801;49.414;19.474;2023-12-20T09:54:29;10.93;;;5.20;;
75218;SDS011;63801;49.414;19.474;2023-12-20T09:56:30;11.73;;;6.07;;
75218;SDS011;63801;49.414;19.474;2023-12-20T09:58:31;10.20;;;4.82;;
75218;SDS011;63801;49.414;19.474;2023-12-20T10:00:31;11.25;;;5.25;;
75218;SDS011;63801;49.414;19.474;2023-12-20T10:02:31;9.93;;;4.32;;
75218;SDS011;63801;49.414;19.474;2023-12-20T10:04:34;8.65;;;4.78;;
75218;SDS011;63801;49.414;19.474;2023-12-20T10:06:35;10.02;;;4.60;;
75218;SDS011;63801;49.414;19.474;2023-12-20T10:08:36;14.93;;;6.60;;
75218;SDS011;63801;49.414;19.474;2023-12-20T10:10:37;15.50;;;6.70;;
75218;SDS011;63801;49.414;19.474;2023-12-20T10:12:37;10.73;;;5.38;;
75218;SDS011;63801;49.414;19.474;2023-12-20T10:14:38;17.33;;;8.05;;
75218;SDS011;63801;49.414;19.474;2023-12-20T10:16:39;12.77;;;5.90;;
75218;SDS011;63801;49.414;19.474;2023-12-20T10:18:40;9.48;;;4.82;;
75218;SDS011;63801;49.414;19.474;2023-12-20T10:20:41;10.15;;;4.63;;
75218;SDS011;63801;49.414;19.474;2023-12-20T10:22:42;10.00;;;4.97;;
75218;SDS011;63801;49.414;19.474;2023-12-20T10:24:42;10.93;;;4.75;;
75218;SDS011;63801;49.414;19.474;2023-12-20T10:26:43;10.75;;;5.07;;
75218;SDS011;63801;49.414;19.474;2023-12-20T10:28:43;9.55;;;4.90;;
75218;SDS011;63801;49.414;19.474;2023-12-20T10:30:44;8.15;;;4.53;;
75218;SDS011;63801;49.414;19.474;2023-12-20T10:32:44;9.70;;;4.88;;
75218;SDS011;63801;49.414;19.474;2023-12-20T10:34:45;6.78;;;3.88;;
75218;SDS011;63801;49.414;19.474;2023-12-20T10:36:45;7.60;;;4.03;;
75218;SDS011;63801;49.414;19.474;2023-12-20T10:38:45;10.40;;;5.40;;
75218;SDS011;63801;49.414;19.474;2023-12-20T10:40:47;8.02;;;4.28;;
75218;SDS011;63801;49.414;19.474;2023-12-20T10:42:48;7.50;;;4.15;;
75218;SDS011;63801;49.414;19.474;2023-12-20T10:46:51;9.63;;;5.13;;
75218;SDS011;63801;49.414;19.474;2023-12-20T10:48:57;9.55;;;4.03;;
75218;SDS011;63801;49.414;19.474;2023-12-20T10:50:58;14.50;;;6.68;;
75218;SDS011;63801;49.414;19.474;2023-12-20T10:52:59;12.75;;;5.13;;
75218;SDS011;63801;49.414;19.474;2023-12-20T10:54:59;7.88;;;4.10;;
75218;SDS011;63801;49.414;19.474;2023-12-20T10:57:00;9.20;;;3.97;;
75218;SDS011;63801;49.414;19.474;2023-12-20T10:59:04;8.35;;;4.15;;
75218;SDS011;63801;49.414;19.474;2023-12-20T11:01:07;9.77;;;4.57;;
75218;SDS011;63801;49.414;19.474;2023-12-20T11:03:09;7.90;;;4.03;;
75218;SDS011;63801;49.414;19.474;2023-12-20T11:05:19;9.07;;;4.75;;
75218;SDS011;63801;49.414;19.474;2023-12-20T11:07:33;11.20;;;4.80;;
75218;SDS011;63801;49.414;19.474;2023-12-20T11:09:39;9.20;;;4.35;;
75218;SDS011;63801;49.414;19.474;2023-12-20T11:14:03;13.68;;;6.20;;
75218;SDS011;63801;49.414;19.474;2023-12-20T11:16:08;13.23;;;6.05;;
75218;SDS011;63801;49.414;19.474;2023-12-20T11:18:09;14.10;;;6.50;;
75218;SDS011;63801;49.414;19.474;2023-12-20T11:20:09;13.02;;;6.20;;
75218;SDS011;63801;49.414;19.474;2023-12-20T11:22:11;11.55;;;5.50;;
75218;SDS011;63801;49.414;19.474;2023-12-20T11:24:12;12.30;;;6.20;;
75218;SDS011;63801;49.414;19.474;2023-12-20T11:26:12;11.88;;;5.95;;
75218;SDS011;63801;49.414;19.474;2023-12-20T11:28:16;15.15;;;6.60;;
75218;SDS011;63801;49.414;19.474;2023-12-20T11:30:21;14.18;;;6.90;;
75218;SDS011;63801;49.414;19.474;2023-12-20T11:34:29;11.82;;;5.57;;
75218;SDS011;63801;49.414;19.474;2023-12-20T11:36:32;17.23;;;7.18;;
75218;SDS011;63801;49.414;19.474;2023-12-20T11:38:36;28.40;;;9.20;;
75218;SDS011;63801;49.414;19.474;2023-12-20T11:40:37;15.77;;;6.97;;
75218;SDS011;63801;49.414;19.474;2023-12-20T11:42:38;16.65;;;6.97;;
75218;SDS011;63801;49.414;19.474;2023-12-20T11:44:41;13.63;;;6.25;;
75218;SDS011;63801;49.414;19.474;2023-12-20T11:46:42;20.98;;;7.97;;
75218;SDS011;63801;49.414;19.474;2023-12-20T11:48:42;13.60;;;5.68;;
75218;SDS011;63801;49.414;19.474;2023-12-20T11:50:44;20.20;;;8.10;;
75218;SDS011;63801;49.414;19.474;2023-12-20T11:52:45;13.80;;;5.78;;
75218;SDS011;63801;49.414;19.474;2023-12-20T11:54:45;12.27;;;5.38;;
75218;SDS011;63801;49.414;19.474;2023-12-20T11:56:46;10.65;;;4.75;;
75218;SDS011;63801;49.414;19.474;2023-12-20T11:58:47;18.65;;;7.78;;
75218;SDS011;63801;49.414;19.474;2023-12-20T12:00:49;25.35;;;9.43;;
75218;SDS011;63801;49.414;19.474;2023-12-20T12:02:57;17.47;;;7.33;;